Home > Products > Valid Products > TAF

000
FTUS43 KILX 221300 AAA
TAFDEC
TAF AMD
KDEC 221315Z 2213/2312 32004KT P6SM VCTS SCT060CB BKN120
      TEMPO 2213/2215 3SM TSRA BR BKN015CB
     FM221600 24008KT P6SM SCT035 BKN250
     FM221900 24010KT P6SM SCT040
     FM230200 24004KT P6SM BKN150=



000
FTUS43 KILX 221200 AAA
TAFPIA
TAF AMD
KPIA 221222Z 2212/2312 22012KT 5SM -TSRA BR SCT015 BKN025CB
      TEMPO 2212/2214 VRB15G25KT 4SM TSRA OVC015CB
     FM221400 23008KT 6SM -RA BR VCTS BKN035CB
     FM221600 24008KT P6SM SCT035 BKN250
     FM222200 24010KT P6SM VCTS SCT040CB BKN150
     FM230500 24005KT P6SM VCSH BKN150=



000
FTUS43 KILX 221100
TAFSPI
TAF
KSPI 221137Z 2212/2312 23005KT P6SM SCT120
     FM221400 24008KT P6SM SCT035 BKN250
     FM221800 24010KT P6SM SCT040
     FM230100 24004KT P6SM BKN150=



000
FTUS43 KILX 221100
TAFBMI
TAF
KBMI 221137Z 2212/2312 05006KT 6SM -TSRA BR OVC015CB
      TEMPO 2212/2214 VRB15G25KT 3SM TSRA BR BKN007CB
     FM221600 23008KT P6SM BKN035
     FM222300 24010KT P6SM VCTS SCT035CB BKN250
     FM230500 25005KT P6SM VCSH BKN150=



000
FTUS43 KILX 221100
TAFCMI
TAF
KCMI 221137Z 2212/2312 32006KT P6SM VCTS SCT060CB BKN150
      TEMPO 2213/2215 4SM TSRA BR BKN035CB
     FM221500 26007KT 5SM BR VCTS BKN035CB
     FM221700 24008KT P6SM SCT035 BKN250
     FM222100 25010KT P6SM VCTS SCT040CB BKN250
     FM230200 24003KT P6SM BKN150=



000
FTUS43 KILX 221100
TAFPIA
TAF
KPIA 221137Z 2212/2312 22006KT 5SM -TSRA SCT060CB BKN110
      TEMPO 2212/2214 4SM TSRA OVC035CB
     FM221400 23008KT 6SM -RA BR VCTS BKN050CB
     FM221600 24008KT P6SM SCT035 BKN250
     FM222200 24010KT P6SM VCTS SCT040CB BKN150
     FM230500 24005KT P6SM VCSH BKN150=



000
FTUS43 KILX 221100
TAFDEC
TAF
KDEC 221137Z 2212/2312 25009KT P6SM SCT120
     FM221500 24008KT P6SM SCT035 BKN250
     FM221900 24010KT P6SM SCT040
     FM230200 24004KT P6SM BKN150=



000
FTUS43 KILX 221000 AAB
TAFBMI
TAF AMD
KBMI 221059Z 2211/2306 18008KT 6SM -TSRA BR SCT015CB OVC035
      TEMPO 2211/2213 VRB15G25KT 3SM TSRA BR BKN015CB
     FM221400 23008KT P6SM VCSH BKN050
     FM222000 24010KT P6SM VCTS SCT035CB BKN250
     FM230100 25005KT P6SM BKN250=



000
FTUS43 KILX 221000 AAC
TAFPIA
TAF AMD
KPIA 221058Z 2211/2306 30004KT P6SM -TSRA BKN045CB OVC080
      TEMPO 2211/2213 4SM TSRA OVC035CB
     FM221300 23008KT 6SM BR VCTS BKN050CB
     FM221500 24008KT P6SM SCT035 BKN250
     FM221900 24010KT P6SM VCTS SCT040CB BKN250
     FM230100 24005KT P6SM BKN250=



000
FTUS43 KILX 221000 AAA
TAFCMI
TAF AMD
KCMI 221006Z 2210/2306 22007KT P6SM VCTS BKN100CB
      TEMPO 2211/2213 4SM TSRA BR BKN035CB
     FM221400 23007KT 5SM BR VCTS BKN035CB
     FM221600 24008KT P6SM SCT035 BKN250
     FM222100 25010KT P6SM VCTS SCT040CB BKN250
     FM230200 24003KT P6SM BKN250=



000
FTUS43 KILX 221000 AAB
TAFPIA
TAF AMD
KPIA 221004Z 2210/2306 35009KT 5SM -TSRA SCT030CB OVC060
      TEMPO 2210/2212 1 1/2SM +TSRA OVC015CB
     FM221200 23008KT 6SM BR VCSH BKN050
     FM221400 24008KT P6SM SCT035 BKN250
     FM221900 24010KT P6SM VCTS SCT040CB BKN250
     FM230100 24005KT P6SM BKN250=



000
FTUS43 KILX 221000 AAA
TAFBMI
TAF AMD
KBMI 221003Z 2210/2306 20009KT P6SM VCTS SCT010CB BKN060
      TEMPO 2210/2212 VRB15G25KT 4SM TSRA BR BKN030CB
     FM221300 23008KT P6SM VCSH BKN050
     FM222000 24010KT P6SM VCTS SCT035CB BKN250
     FM230100 25005KT P6SM BKN250=



000
FTUS43 KILX 221000 AAA
TAFPIA
TAF AMD
KPIA 221001Z 2210/2306 35009KT P6SM -TSRA SCT030CB OVC060
      TEMPO 2210/2212 4SM TSRA OVC025CB
     FM221200 23008KT 6SM BR VCSH BKN050
     FM221400 24008KT P6SM SCT035 BKN250
     FM221900 24010KT P6SM VCTS SCT040CB BKN250
     FM230100 24005KT P6SM BKN250=



000
FTUS43 KILX 220500
TAFCMI
TAF
KCMI 220520Z 2206/2306 19006KT 6SM BR VCTS BKN070CB
      TEMPO 2208/2211 4SM TSRA BR BKN035CB
     FM221200 23007KT 5SM BR VCTS BKN035CB
     FM221500 24008KT P6SM SCT035 BKN250
     FM222100 25010KT P6SM VCTS SCT040CB BKN250
     FM230200 24003KT P6SM BKN250=



000
FTUS43 KILX 220500
TAFBMI
TAF
KBMI 220520Z 2206/2306 19006KT P6SM VCTS SCT050CB BKN100
      TEMPO 2207/2210 4SM TSRA BR BKN030CB
     FM221300 23008KT P6SM VCSH BKN050
     FM222000 24010KT P6SM VCTS SCT035CB BKN250
     FM230100 25005KT P6SM BKN250=



000
FTUS43 KILX 220500
TAFDEC
TAF
KDEC 220520Z 2206/2306 19008KT P6SM SCT120
     FM221500 24008KT P6SM SCT035 BKN250
     FM221900 24010KT P6SM SCT040
     FM230200 24004KT P6SM BKN250=



000
FTUS43 KILX 220500
TAFPIA
TAF
KPIA 220520Z 2206/2306 19006KT P6SM VCTS BKN060CB
      TEMPO 2207/2210 4SM TSRA BR BKN035CB
     FM221200 23008KT 6SM BR VCSH BKN050
     FM221400 24008KT P6SM SCT035 BKN250
     FM221900 24010KT P6SM VCTS SCT040CB BKN250
     FM230100 24005KT P6SM BKN250=



000
FTUS43 KILX 220500
TAFSPI
TAF
KSPI 220520Z 2206/2306 19006KT P6SM SCT120
     FM221400 24008KT P6SM SCT035 BKN250
     FM221800 24010KT P6SM SCT040
     FM230100 24004KT P6SM BKN250=



000
FTUS43 KILX 212300 CCA
TAFCMI
TAF COR
KCMI 212350Z 2200/2224 20007KT P6SM VCTS BKN035CB
     FM220100 19006KT P6SM SCT080 BKN250
     FM220800 19006KT P6SM VCTS BKN080CB
     FM221400 23008KT P6SM VCSH BKN050
     FM221800 24010KT P6SM SCT045=



000
FTUS43 KILX 212300
TAFDEC
TAF
KDEC 212323Z 2200/2224 20007KT P6SM SCT050 BKN250
     FM221400 23008KT P6SM SCT080 BKN250
     FM221800 24010KT P6SM SCT050=



000
FTUS43 KILX 212300
TAFSPI
TAF
KSPI 212323Z 2200/2224 19006KT P6SM VCTS BKN045CB
     FM220100 19006KT P6SM BKN250
     FM221400 23008KT P6SM SCT080 BKN250
     FM221800 24010KT P6SM SCT050=



000
FTUS43 KILX 212300
TAFPIA
TAF
KPIA 212323Z 2200/2224 19006KT P6SM SCT100 BKN250
     FM220700 19006KT P6SM VCTS BKN080CB
     FM221200 23008KT P6SM VCSH BKN060
     FM221500 24008KT P6SM SCT040 BKN250=



000
FTUS43 KILX 212300
TAFCMI
TAF
KCMI 212323Z 2200/2224 20007KT P6SM VCTS SCT050CB BKN150
     FM220200 19006KT P6SM SCT080 BKN250
     FM220800 19006KT P6SM VCTS BKN080CB
     FM221400 23008KT P6SM VCSH BKN050
     FM221800 24010KT P6SM SCT045=



000
FTUS43 KILX 212300
TAFBMI
TAF
KBMI 212323Z 2200/2224 19006KT P6SM SCT100 BKN200
     FM220800 19006KT P6SM VCTS BKN080CB
     FM221300 23008KT P6SM VCSH BKN050
     FM221600 24010KT P6SM SCT040 BKN250=



000
FTUS43 KILX 211700
TAFCMI
TAF
KCMI 211733Z 2118/2218 23010KT P6SM SCT080 BKN150
     FM220000 19006KT P6SM BKN150
     FM220800 19006KT P6SM VCTS BKN080CB
     FM221400 23008KT P6SM SCT080 BKN250=



000
FTUS43 KILX 211700
TAFDEC
TAF
KDEC 211733Z 2118/2218 23012KT P6SM SCT080 BKN150
     FM220000 19006KT P6SM BKN150
     FM221400 23008KT P6SM SCT080 BKN250=



000
FTUS43 KILX 211700
TAFBMI
TAF
KBMI 211733Z 2118/2218 23012KT P6SM SCT080 BKN150
     FM220000 19006KT P6SM BKN150
     FM220800 19006KT P6SM VCTS BKN080CB
     FM221400 23008KT P6SM SCT080 BKN250=



000
FTUS43 KILX 211700
TAFSPI
TAF
KSPI 211733Z 2118/2218 23010KT P6SM SCT080 BKN150
     FM220000 19006KT P6SM BKN150
     FM221400 23008KT P6SM SCT080 BKN250=



000
FTUS43 KILX 211700
TAFPIA
TAF
KPIA 211733Z 2118/2218 22010KT P6SM SCT080 BKN150
     FM220000 19006KT P6SM BKN150
     FM220700 19006KT P6SM VCTS BKN080CB
     FM221300 23008KT P6SM SCT080 BKN250=



000
FTUS43 KILX 211100
TAFBMI
TAF
KBMI 211125Z 2112/2212 22008KT P6SM SCT060 BKN250
     FM211500 22010KT P6SM SCT060 BKN120
     FM212100 21011KT P6SM SCT060
     FM220100 18007KT P6SM BKN150
     FM220600 21007KT P6SM VCTS BKN060CB=



000
FTUS43 KILX 211100
TAFDEC
TAF
KDEC 211125Z 2112/2212 22008KT P6SM SCT060 BKN250
     FM211400 22011KT P6SM SCT060 BKN250
     FM212100 20010KT P6SM SCT060
     FM220100 18008KT P6SM SCT250
     FM220600 21007KT P6SM BKN120=



000
FTUS43 KILX 211100
TAFCMI
TAF
KCMI 211125Z 2112/2212 22008KT P6SM SCT060 BKN250
     FM211500 23010KT P6SM SCT060 BKN120
     FM212100 22010KT P6SM SCT060
     FM220200 18006KT P6SM BKN150
     FM220600 21007KT P6SM VCTS BKN060CB=



000
FTUS43 KILX 211100
TAFSPI
TAF
KSPI 211125Z 2112/2212 22006KT P6SM SCT060 BKN250
     FM211400 22011KT P6SM SCT060 BKN250
     FM212100 20010KT P6SM SCT060
     FM220100 18008KT P6SM SCT250
     FM220600 21007KT P6SM BKN120=



000
FTUS43 KILX 211100
TAFPIA
TAF
KPIA 211125Z 2112/2212 22006KT P6SM SCT060 BKN250
     FM211400 22010KT P6SM SCT060 BKN120
     FM212100 22010KT P6SM SCT060
     FM220100 18007KT P6SM BKN150
     FM220600 21007KT P6SM VCTS BKN060CB=



000
FTUS43 KILX 210800 AAA
TAFCMI
TAF AMD
KCMI 210842Z 2109/2206 18005KT P6SM VCSH SCT050 BKN100
     FM211500 23009KT P6SM SCT050 BKN120
     FM212100 22011KT P6SM SCT060
     FM220200 18005KT P6SM BKN250=



000
FTUS43 KILX 210800 AAA
TAFSPI
TAF AMD
KSPI 210841Z 2109/2206 20006KT P6SM SCT070 BKN120
     FM211400 22009KT P6SM SCT050 BKN250
     FM212100 21012KT P6SM SCT060
     FM220100 18008KT P6SM SCT250=



000
FTUS43 KILX 210800 AAA
TAFDEC
TAF AMD
KDEC 210841Z 2109/2206 20006KT P6SM SCT060 BKN120
     FM211400 22009KT P6SM SCT050 BKN250
     FM212100 21012KT P6SM SCT060
     FM220100 18008KT P6SM SCT250=



000
FTUS43 KILX 210800 AAA
TAFPIA
TAF AMD
KPIA 210840Z 2109/2206 18005KT P6SM VCSH BKN050 OVC120
     FM211400 22009KT P6SM SCT050 BKN120
     FM212100 22012KT P6SM SCT060
     FM220100 20007KT P6SM BKN250=



000
FTUS43 KILX 210800 AAA
TAFBMI
TAF AMD
KBMI 210840Z 2109/2206 18005KT P6SM VCSH SCT060 BKN120
     FM211500 22010KT P6SM SCT050 BKN120
     FM212100 21013KT P6SM SCT060
     FM220100 19009KT P6SM BKN250=



000
FTUS43 KILX 210500
TAFCMI
TAF
KCMI 210525Z 2106/2206 22007KT P6SM SCT120 BKN250
     FM210900 18005KT 5SM BR VCTS BKN050CB OVC120
     FM211500 23009KT P6SM SCT050 BKN120
     FM212100 22011KT P6SM SCT060
     FM220200 18005KT P6SM BKN250=



000
FTUS43 KILX 210500
TAFBMI
TAF
KBMI 210525Z 2106/2206 20007KT P6SM SCT100 BKN250
     FM210800 18005KT 5SM BR VCTS BKN050CB OVC120
     FM211500 22010KT P6SM SCT050 BKN120
     FM212100 21013KT P6SM SCT060
     FM220100 19009KT P6SM BKN250=



000
FTUS43 KILX 210500
TAFSPI
TAF
KSPI 210525Z 2106/2206 18009KT P6SM BKN250
     FM210900 20006KT 5SM BR SCT120 BKN250
     FM211400 22009KT P6SM SCT050 BKN250
     FM212100 21012KT P6SM SCT060
     FM220100 18008KT P6SM SCT250=



000
FTUS43 KILX 210500
TAFDEC
TAF
KDEC 210525Z 2106/2206 19009KT P6SM BKN250
     FM210900 20006KT 5SM BR SCT120 BKN250
     FM211400 22009KT P6SM SCT050 BKN250
     FM212100 21012KT P6SM SCT060
     FM220100 18008KT P6SM SCT250=



000
FTUS43 KILX 210500
TAFPIA
TAF
KPIA 210525Z 2106/2206 18005KT P6SM SCT120 OVC250
     FM210800 18005KT 5SM BR VCTS BKN050CB OVC120
     FM211400 22009KT P6SM SCT050 BKN120
     FM212100 22012KT P6SM SCT060
     FM220100 20007KT P6SM BKN250=



000
FTUS43 KILX 202300
TAFSPI
TAF
KSPI 202340Z 2100/2124 19007KT P6SM BKN250
     FM210900 20006KT 4SM BR SCT120 BKN250
     FM211400 22009KT P6SM SCT050 BKN250
     FM212100 21012KT P6SM SCT060=



000
FTUS43 KILX 202300
TAFPIA
TAF
KPIA 202340Z 2100/2124 19005KT P6SM SCT120 OVC250
     FM210800 18005KT 5SM BR VCTS BKN050CB OVC120
     FM211400 22009KT P6SM SCT050 BKN120
     FM212100 22012KT P6SM SCT060=



000
FTUS43 KILX 202300
TAFDEC
TAF
KDEC 202340Z 2100/2124 21006KT P6SM BKN250
     FM210900 20006KT 5SM BR SCT120 BKN250
     FM211400 22009KT P6SM SCT050 BKN250
     FM212100 21012KT P6SM SCT060=



000
FTUS43 KILX 202300
TAFBMI
TAF
KBMI 202340Z 2100/2124 21007KT P6SM BKN100
     FM210800 18005KT 5SM BR VCTS BKN050CB OVC120
     FM211500 22010KT P6SM SCT050 BKN120
     FM212100 21013KT P6SM SCT060=



000
FTUS43 KILX 202300
TAFCMI
TAF
KCMI 202340Z 2100/2124 22007KT P6SM BKN120
     FM210900 18005KT 5SM BR VCTS BKN050CB OVC120
     FM211500 22009KT P6SM SCT050 BKN120
     FM212100 21011KT P6SM SCT060=



000
FTUS43 KILX 202200 AAA
TAFBMI
TAF AMD
KBMI 202222Z 2022/2118 21010KT P6SM SCT050 OVC120
      TEMPO 2022/2024 P6SM -RA BKN050
     FM210000 18005KT P6SM BKN120
     FM210800 18005KT P6SM VCTS BKN050CB OVC120
     FM211400 22009KT P6SM SCT050 BKN120=



000
FTUS43 KILX 201700
TAFSPI
TAF
KSPI 201738Z 2018/2118 22008KT P6SM SCT050 OVC120
      TEMPO 2018/2020 6SM -RA
     FM202000 23008KT P6SM SCT120 BKN250
     FM210000 18005KT P6SM SCT120 BKN250
     FM211400 22009KT P6SM SCT050=



000
FTUS43 KILX 201700
TAFPIA
TAF
KPIA 201738Z 2018/2118 23009KT P6SM SCT050 OVC120
      TEMPO 2018/2020 5SM -RA BR
     FM210000 18005KT P6SM BKN120
     FM210800 18005KT P6SM VCTS BKN050CB OVC120
     FM211400 22009KT P6SM SCT050 BKN120=



000
FTUS43 KILX 201700
TAFDEC
TAF
KDEC 201738Z 2018/2118 22008KT P6SM SCT050 OVC120
      TEMPO 2018/2020 6SM -RA
     FM202000 23008KT P6SM SCT120 BKN250
     FM210000 18005KT P6SM SCT120 BKN250
     FM211400 22009KT P6SM SCT050=



000
FTUS43 KILX 201700
TAFCMI
TAF
KCMI 201738Z 2018/2118 18005KT 4SM -TSRA BR SCT050CB OVC120
     FM201900 18005KT P6SM SCT050 OVC120
     FM210000 18005KT P6SM BKN120
     FM210800 18005KT P6SM VCTS BKN050CB OVC120
     FM211400 22009KT P6SM SCT050 BKN120=



000
FTUS43 KILX 201700
TAFBMI
TAF
KBMI 201738Z 2018/2118 18009KT P6SM SCT050 OVC120
      TEMPO 2018/2020 6SM -RA BR
     FM210000 18005KT P6SM BKN120
     FM210800 18005KT P6SM VCTS BKN050CB OVC120
     FM211400 22009KT P6SM SCT050 BKN120=



000
FTUS43 KILX 201600 AAA
TAFCMI
TAF AMD
KCMI 201613Z 2016/2112 22008KT P6SM VCTS SCT035CB BKN120
     FM210000 18006KT P6SM SCT120
     FM210900 21006KT P6SM VCTS BKN060CB=



000
FTUS43 KILX 201500 AAA
TAFPIA
TAF AMD
KPIA 201514Z 2015/2112 24009KT P6SM VCTS SCT035CB BKN250
     FM202300 19005KT P6SM SCT120
     FM210800 18004KT P6SM VCTS BKN060CB=



000
FTUS43 KILX 201500 AAE
TAFSPI
TAF AMD
KSPI 201513Z 2015/2112 23008KT 4SM TSRA BR SCT015CB BKN070
      TEMPO 2015/2016 1SM +TSRA BR BKN015CB
     FM201700 23009KT P6SM SCT035 BKN250
     FM202300 18005KT P6SM SCT120
     FM210700 21006KT P6SM VCTS BKN060CB=



000
FTUS43 KILX 201400 AAA
TAFDEC
TAF AMD
KDEC 201425Z 2014/2112 VRB03KT P6SM VCTS SCT050CB OVC120
      TEMPO 2015/2016 3SM TSRA BR SCT015CB BKN050
     FM202300 18005KT P6SM SCT120
     FM210800 21006KT P6SM VCTS BKN060CB=



000
FTUS43 KILX 201400 AAD
TAFSPI
TAF AMD
KSPI 201402Z 2014/2112 23008KT 4SM TSRA BR SCT015CB BKN070
      TEMPO 2014/2015 1/4SM +TSRA FG BKN015CB
     FM201700 23009KT P6SM SCT035 BKN250
     FM202300 18005KT P6SM SCT120
     FM210700 21006KT P6SM VCTS BKN060CB=



000
FTUS43 KILX 201400 AAC
TAFSPI
TAF AMD
KSPI 201401Z 2014/2112 23008KT 4SM TSRA BR SCT015CB BKN070
      TEMPO 2015/2016 1/4SM +TSRA FG BKN015CB
     FM201700 23009KT P6SM SCT035 BKN250
     FM202300 18005KT P6SM SCT120
     FM210700 21006KT P6SM VCTS BKN060CB=



000
FTUS43 KILX 201300 AAB
TAFSPI
TAF AMD
KSPI 201341Z 2014/2112 VRB03KT P6SM VCTS SCT070CB BKN200
      TEMPO 2015/2017 3SM TSRA BR BKN015CB
     FM201700 23009KT P6SM SCT035 BKN250
     FM202300 18005KT P6SM SCT120
     FM210700 21006KT P6SM VCTS BKN060CB=



000
FTUS43 KILX 201200 AAA
TAFSPI
TAF AMD
KSPI 201253Z 2013/2112 VRB03KT P6SM VCTS SCT070CB BKN200
     FM201500 23009KT P6SM SCT035 BKN250
     FM202300 18005KT P6SM SCT120
     FM210700 21006KT P6SM VCTS BKN060CB=



000
FTUS43 KILX 201200 AAA
TAFBMI
TAF AMD
KBMI 201252Z 2013/2112 VRB03KT P6SM SKC
     FM201500 26010KT P6SM SCT035 BKN250
     FM210000 18006KT P6SM SCT120
     FM210900 20005KT P6SM VCTS BKN060CB=



000
FTUS43 KILX 201100 CCA
TAFSPI
TAF COR
KSPI 201142Z 2012/2112 VRB03KT P6SM VCTS SCT070CB BKN200
      TEMPO 2012/2014 2SM BR
     FM201500 23009KT P6SM SCT035 BKN250
     FM202300 18005KT P6SM SCT120
     FM210700 21006KT P6SM VCTS BKN060CB=



000
FTUS43 KILX 201100 CCA
TAFPIA
TAF COR
KPIA 201142Z 2012/2112 VRB03KT P6SM SKC
     FM201500 24009KT P6SM SCT035 BKN250
     FM202300 19005KT P6SM SCT120
     FM210800 18004KT P6SM VCTS BKN060CB=



000
FTUS43 KILX 201100 CCA
TAFDEC
TAF COR
KDEC 201142Z 2012/2112 VRB03KT P6SM SKC
     FM201500 26009KT P6SM SCT035 BKN250
     FM202300 18005KT P6SM SCT120
     FM210800 21006KT P6SM VCTS BKN060CB=



000
FTUS43 KILX 201100 CCA
TAFCMI
TAF COR
KCMI 201142Z 2012/2112 27003KT 1/4SM FG OVC002
      TEMPO 2012/2014 3SM BR SCT002
     FM201400 26010KT P6SM SCT035 BKN250
     FM210000 18006KT P6SM SCT120
     FM210900 21006KT P6SM VCTS BKN060CB=



000
FTUS43 KILX 201100 CCA
TAFBMI
TAF COR
KBMI 201142Z 2012/2112 VRB03KT P6SM SKC
      TEMPO 2012/2014 2SM BR
     FM201500 26010KT P6SM SCT035 BKN250
     FM210000 18006KT P6SM SCT120
     FM210900 20005KT P6SM VCTS BKN060CB=



000
FTUS43 KILX 201100
TAFPIA
TAF
KPIA 201127Z 2012/2112 VRB03KT P6SM SKC
     FM201500 24009KT P6SM SCT035 BKN250
     FM202300 19005KT P6SM SCT120
     FM210800 18004KT P6SM BKN060=



000
FTUS43 KILX 201100
TAFBMI
TAF
KBMI 201127Z 2012/2112 VRB03KT P6SM SKC
      TEMPO 2012/2014 2SM BR
     FM201500 26010KT P6SM SCT035 BKN250
     FM210000 18006KT P6SM SCT120
     FM210900 20005KT P6SM BKN060=



000
FTUS43 KILX 201100
TAFDEC
TAF
KDEC 201127Z 2012/2112 VRB03KT P6SM SKC
     FM201500 26009KT P6SM SCT035 BKN250
     FM202300 18005KT P6SM SCT120
     FM210800 21006KT P6SM BKN060=



000
FTUS43 KILX 201100
TAFSPI
TAF
KSPI 201127Z 2012/2112 VRB03KT P6SM VCTS SCT070CB BKN200
     FM201500 23009KT P6SM SCT035 BKN250
     FM202300 18005KT P6SM SCT120
     FM210700 21006KT P6SM BKN060=



000
FTUS43 KILX 201100
TAFCMI
TAF
KCMI 201127Z 2012/2112 27003KT 1/4SM FG OVC002
      TEMPO 2012/2014 3SM BR SCT002
     FM201400 26010KT P6SM SCT035 BKN250
     FM210000 18006KT P6SM SCT120
     FM210900 21006KT P6SM BKN060=



000
FTUS43 KILX 200900 AAA
TAFCMI
TAF AMD
KCMI 200916Z 2009/2106 27003KT 1/4SM FG OVC002
      TEMPO 2009/2012 1SM BR SCT001
     FM201400 26008KT P6SM SCT035 BKN120
     FM210000 22003KT P6SM VCTS SCT035CB BKN150=



000
FTUS43 KILX 200900 AAA
TAFPIA
TAF AMD
KPIA 200915Z 2009/2106 VRB03KT P6SM SKC
      TEMPO 2009/2012 3SM BR
     FM201400 24006KT P6SM SCT035 BKN150
     FM202300 19003KT P6SM VCTS SCT035CB BKN150=



000
FTUS43 KILX 200900 AAA
TAFDEC
TAF AMD
KDEC 200915Z 2009/2106 VRB03KT P6SM SKC
      TEMPO 2009/2012 3SM BR
     FM201400 26008KT P6SM SCT035 BKN100
     FM202300 21004KT P6SM VCTS SCT035CB BKN150=



000
FTUS43 KILX 200900 AAA
TAFBMI
TAF AMD
KBMI 200914Z 2009/2106 VRB03KT P6SM SKC
      TEMPO 2009/2012 3SM BR
     FM201400 26007KT P6SM SCT035 BKN150
     FM210000 22005KT P6SM VCTS SCT035CB BKN150=



000
FTUS43 KILX 200500
TAFPIA
TAF
KPIA 200525Z 2006/2106 VRB03KT P6SM SKC
     FM200800 VRB03KT 4SM BR SKC
      TEMPO 2009/2012 2SM BR
     FM201400 24006KT P6SM SCT035 BKN150
     FM202300 19003KT P6SM VCTS SCT035CB BKN150=



000
FTUS43 KILX 200500
TAFCMI
TAF
KCMI 200525Z 2006/2106 26004KT P6SM SKC
     FM200800 27003KT 3SM BR SKC
      TEMPO 2009/2012 1SM BR
     FM201400 26008KT P6SM SCT035 BKN120
     FM210000 22003KT P6SM VCTS SCT035CB BKN150=



000
FTUS43 KILX 200500
TAFSPI
TAF
KSPI 200525Z 2006/2106 VRB03KT P6SM FEW250
     FM200800 VRB03KT 3SM BR SCT100
      TEMPO 2009/2011 1SM BR
     FM201300 25006KT P6SM SCT035 BKN100
     FM202300 18003KT P6SM VCTS SCT035CB BKN150=



000
FTUS43 KILX 200500
TAFDEC
TAF
KDEC 200525Z 2006/2106 28004KT P6SM SKC
     FM200800 28003KT 3SM BR SCT100
      TEMPO 2009/2012 1SM BR
     FM201400 26008KT P6SM SCT035 BKN100
     FM202300 21004KT P6SM VCTS SCT035CB BKN150=



000
FTUS43 KILX 200500
TAFBMI
TAF
KBMI 200525Z 2006/2106 27005KT P6SM SKC
     FM200800 27004KT 4SM BR SKC
      TEMPO 2009/2012 2SM BR
     FM201400 26007KT P6SM SCT035 BKN150
     FM210000 22005KT P6SM VCTS SCT035CB BKN150=



000
FTUS43 KILX 192300
TAFBMI
TAF
KBMI 192324Z 2000/2024 25007KT P6SM FEW250
     FM200700 29004KT 3SM BR SKC
     FM201400 24007KT P6SM SCT035 BKN120=



000
FTUS43 KILX 192300
TAFCMI
TAF
KCMI 192324Z 2000/2024 24009KT P6SM SCT035 BKN100
     FM200100 25004KT P6SM SCT250
     FM200700 25003KT 3SM BR SKC
     FM201400 26008KT P6SM SCT035 BKN120=



000
FTUS43 KILX 192300
TAFSPI
TAF
KSPI 192324Z 2000/2024 26003KT P6SM FEW250
     FM200700 VRB03KT 3SM BR SKC
     FM201400 25006KT P6SM SCT035 BKN120=



000
FTUS43 KILX 192300
TAFPIA
TAF
KPIA 192324Z 2000/2024 24004KT P6SM FEW250
     FM200700 VRB03KT 2SM BR SKC
     FM201400 23006KT P6SM SCT035 BKN120=



000
FTUS43 KILX 192300
TAFDEC
TAF
KDEC 192324Z 2000/2024 25008KT P6SM SCT250
     FM200700 28003KT 3SM BR SKC
     FM201400 25008KT P6SM SCT035 BKN120=



000
FTUS43 KILX 191900 AAA
TAFDEC
TAF AMD
KDEC 191903Z 1919/2018 33005KT P6SM SCT035 BKN120
     FM200100 VRB03KT P6SM SCT120
     FM200700 VRB03KT 3SM BR SKC
     FM201400 23006KT P6SM SCT035=



000
FTUS43 KILX 191900 AAA
TAFSPI
TAF AMD
KSPI 191902Z 1919/2018 15005KT P6SM SCT035 BKN120
     FM200100 VRB03KT P6SM SCT120
     FM200700 VRB03KT 3SM BR SKC
     FM201400 23006KT P6SM SCT035=



000
FTUS43 KILX 191900 AAB
TAFCMI
TAF AMD
KCMI 191901Z 1919/2018 32005KT P6SM VCTS SCT035CB BKN120
     FM200100 VRB03KT P6SM SCT120
     FM200700 VRB03KT 3SM BR SKC
     FM201400 23006KT P6SM SCT035=



000
FTUS43 KILX 191800 AAA
TAFCMI
TAF AMD
KCMI 191813Z 1918/2018 27012KT P6SM VCTS SCT035CB BKN250
      TEMPO 1918/1920 5SM TSRA BR BKN035CB
     FM200100 VRB03KT P6SM SCT120
     FM200700 VRB03KT 3SM BR SKC
     FM201400 23006KT P6SM SCT035=



000
FTUS43 KILX 191700
TAFSPI
TAF
KSPI 191733Z 1918/2018 33005KT P6SM VCTS SCT035CB BKN120
      TEMPO 1918/1920 4SM TSRA BR BKN035CB
     FM192000 22006KT P6SM SCT035 BKN120
     FM200100 VRB03KT P6SM SCT120
     FM200700 VRB03KT 3SM BR SKC
     FM201400 23006KT P6SM SCT035=



000
FTUS43 KILX 191700
TAFDEC
TAF
KDEC 191733Z 1918/2018 33005KT P6SM VCTS SCT035CB BKN120
      TEMPO 1918/1920 4SM TSRA BR BKN035CB
     FM192000 22006KT P6SM VCTS SCT035CB BKN120
     FM200100 VRB03KT P6SM SCT120
     FM200700 VRB03KT 3SM BR SKC
     FM201400 23006KT P6SM SCT035=



000
FTUS43 KILX 191700
TAFBMI
TAF
KBMI 191733Z 1918/2018 25008KT P6SM VCTS SCT035CB BKN250
     FM200100 VRB03KT P6SM SCT120
     FM200700 VRB03KT 3SM BR SKC
     FM201400 23006KT P6SM SCT035=



000
FTUS43 KILX 191700
TAFPIA
TAF
KPIA 191733Z 1918/2018 22006KT P6SM SCT035 BKN120
     FM200100 VRB03KT P6SM SCT120
     FM200700 VRB03KT 2SM BR SKC
     FM201400 23006KT P6SM SCT035=



000
FTUS43 KILX 191700
TAFCMI
TAF
KCMI 191733Z 1918/2018 22012KT P6SM VCTS SCT035CB BKN250
     FM200100 VRB03KT P6SM SCT120
     FM200700 VRB03KT 3SM BR SKC
     FM201400 23006KT P6SM SCT035=



000
FTUS43 KILX 191600 AAA
TAFSPI
TAF AMD
KSPI 191609Z 1916/2012 25010KT P6SM SCT025 BKN120
      TEMPO 1916/1918 5SM -RA BR SCT025 BKN070
     FM191800 24012KT P6SM VCTS BKN035CB
     FM200000 27004KT P6SM SCT040
     FM200900 VRB03KT P6SM SCT120=



000
FTUS43 KILX 191600 AAA
TAFBMI
TAF AMD
KBMI 191604Z 1916/2012 23012KT P6SM VCTS BKN025CB
     FM192000 24014KT P6SM VCTS SCT025CB BKN070
     FM200000 27005KT P6SM SCT040
     FM201000 VRB04KT P6SM SCT120=



000
FTUS43 KILX 191600 AAB
TAFCMI
TAF AMD
KCMI 191604Z 1916/2012 22012KT P6SM SCT035 BKN250
     FM191900 24012KT P6SM VCTS BKN035CB
     FM200200 27004KT P6SM SCT040
     FM201000 VRB04KT P6SM SCT120=



000
FTUS43 KILX 191600 AAB
TAFPIA
TAF AMD
KPIA 191602Z 1916/2012 24008KT 3SM -RA BR VCTS SCT015CB BKN070
     FM191800 24012KT P6SM SCT015 BKN070
     FM192300 27003KT P6SM SCT040
     FM201000 VRB03KT P6SM SCT120=



000
FTUS43 KILX 191500 AAA
TAFPIA
TAF AMD
KPIA 191517Z 1915/2012 29015G30KT 1SM TSRA BR BKN015CB
     FM191600 26015G25KT 5SM -RA BR VCTS SCT015CB BKN025
     FM191800 24012KT P6SM BKN035
     FM192300 27003KT P6SM SCT040
     FM201000 VRB03KT P6SM SCT120=



000
FTUS43 KILX 191400 AAA
TAFCMI
TAF AMD
KCMI 191424Z 1914/2012 20006KT P6SM SCT035 BKN250
     FM191900 24012KT P6SM VCTS BKN035CB
     FM200200 27004KT P6SM SCT040
     FM201000 VRB04KT P6SM SCT120=



    US Dept of Commerce
    National Oceanic and Atmospheric Administration
    National Weather Service
    1325 East West Highway
    Silver Spring, MD 20910
    Page Author: NWS Internet Services Team
Disclaimer
Information Quality
Credits
Glossary
Privacy Policy
Freedom of Information Act (FOIA)
About Us
Career Opportunities